createdAt,value
2023-07-08T00:00:28.511Z,37.50
2023-07-08T00:01:28.565Z,37.49
2023-07-08T00:02:28.560Z,37.49
2023-07-08T00:03:28.473Z,37.48
2023-07-08T00:04:28.501Z,37.53
2023-07-08T00:05:28.458Z,37.51
2023-07-08T00:06:28.520Z,37.53
2023-07-08T00:07:28.472Z,37.53
2023-07-08T00:08:28.429Z,37.54
2023-07-08T00:09:28.495Z,37.52
2023-07-08T00:10:28.444Z,37.47
2023-07-08T00:11:28.469Z,37.51
2023-07-08T00:12:28.433Z,37.51
2023-07-08T00:13:28.463Z,37.52
2023-07-08T00:14:28.425Z,37.54
2023-07-08T00:15:28.417Z,37.55
2023-07-08T00:16:28.454Z,37.53
2023-07-08T00:17:28.393Z,37.51
2023-07-08T00:18:28.359Z,37.51
2023-07-08T00:19:28.391Z,37.54
2023-07-08T00:20:28.388Z,37.52
2023-07-08T00:21:28.399Z,37.50
2023-07-08T00:22:28.365Z,37.53
2023-07-08T00:23:28.376Z,37.56
2023-07-08T00:24:28.381Z,37.53
2023-07-08T00:25:28.389Z,37.52
2023-07-08T00:26:28.329Z,37.54
2023-07-08T00:27:28.336Z,37.58
2023-07-08T00:28:28.960Z,37.54
2023-07-08T00:29:28.324Z,37.51
2023-07-08T00:30:28.355Z,37.54
2023-07-08T00:31:28.455Z,37.50
2023-07-08T00:32:28.308Z,37.51
2023-07-08T00:33:28.333Z,37.52
2023-07-08T00:34:28.269Z,37.51
2023-07-08T00:35:28.279Z,37.56
2023-07-08T00:36:28.277Z,37.54
2023-07-08T00:37:28.270Z,37.50
2023-07-08T00:38:28.524Z,37.54
2023-07-08T00:39:28.238Z,37.52
2023-07-08T00:40:28.282Z,37.55
2023-07-08T00:41:28.228Z,37.52
2023-07-08T00:42:28.220Z,37.55
2023-07-08T00:43:28.253Z,37.50
2023-07-08T00:44:29.072Z,37.52
2023-07-08T00:45:28.222Z,37.57
2023-07-08T00:46:28.349Z,37.57
2023-07-08T00:47:28.257Z,37.54
2023-07-08T00:48:28.255Z,37.54
2023-07-08T00:49:28.181Z,37.56
2023-07-08T00:50:28.205Z,37.57
2023-07-08T00:51:28.163Z,37.51
2023-07-08T00:52:28.169Z,37.52
2023-07-08T00:53:28.174Z,37.55
2023-07-08T00:54:28.173Z,37.56
2023-07-08T00:55:28.188Z,37.57
2023-07-08T00:56:28.112Z,37.56
2023-07-08T00:57:28.144Z,37.54
2023-07-08T00:58:28.155Z,37.55
2023-07-08T00:59:28.129Z,37.54
2023-07-08T01:00:28.126Z,37.54
2023-07-08T01:01:28.164Z,37.57
2023-07-08T01:02:28.182Z,37.55
2023-07-08T01:03:28.248Z,37.57
2023-07-08T01:04:28.076Z,37.57
2023-07-08T01:05:28.093Z,37.56
2023-07-08T01:06:28.089Z,37.60
2023-07-08T01:07:28.084Z,37.57
2023-07-08T01:08:28.080Z,37.56
2023-07-08T01:09:28.076Z,37.59
2023-07-08T01:10:28.088Z,37.60
2023-07-08T01:11:28.089Z,37.54
2023-07-08T01:12:28.020Z,37.59
2023-07-08T01:13:28.633Z,37.59
2023-07-08T01:14:28.056Z,37.54
2023-07-08T01:15:28.011Z,37.54
2023-07-08T01:16:28.042Z,37.59
2023-07-08T01:17:28.112Z,37.60
2023-07-08T01:18:28.037Z,37.57
2023-07-08T01:19:28.049Z,37.57
2023-07-08T01:20:28.001Z,37.58
2023-07-08T01:21:27.989Z,37.61
2023-07-08T01:22:27.957Z,37.60
2023-07-08T01:23:27.972Z,37.55
2023-07-08T01:24:28.599Z,37.60
2023-07-08T01:25:27.983Z,37.60
2023-07-08T01:26:27.997Z,37.56
2023-07-08T01:27:27.932Z,37.60
2023-07-08T01:28:27.929Z,37.57
2023-07-08T01:29:28.523Z,37.60
2023-07-08T01:30:27.916Z,37.60
2023-07-08T01:31:27.946Z,37.57
2023-07-08T01:32:28.125Z,37.59
2023-07-08T01:33:27.940Z,37.60
2023-07-08T01:34:27.892Z,37.59
2023-07-08T01:35:27.884Z,37.57
2023-07-08T01:36:27.881Z,37.57
2023-07-08T01:37:27.869Z,37.52
2023-07-08T01:38:27.870Z,37.57
2023-07-08T01:39:27.873Z,37.61
2023-07-08T01:40:27.881Z,37.61
2023-07-08T01:41:27.821Z,37.58
2023-07-08T01:42:27.825Z,37.58
2023-07-08T01:43:27.821Z,37.58
2023-07-08T01:44:27.810Z,37.57
2023-07-08T01:45:27.807Z,37.61
2023-07-08T01:46:27.844Z,37.59
2023-07-08T01:47:27.838Z,37.57
2023-07-08T01:48:27.833Z,37.57
2023-07-08T01:49:27.766Z,37.57
2023-07-08T01:50:27.781Z,37.63
2023-07-08T01:51:27.800Z,37.58
2023-07-08T01:52:27.772Z,37.57
2023-07-08T01:53:27.766Z,37.59
2023-07-08T01:54:27.773Z,37.58
2023-07-08T01:55:27.769Z,37.63
2023-07-08T01:56:27.787Z,37.58
2023-07-08T01:57:27.794Z,37.58
2023-07-08T01:58:27.795Z,37.58
2023-07-08T01:59:27.834Z,37.65
2023-07-08T02:00:27.840Z,37.63
2023-07-08T02:01:27.873Z,37.63
2023-07-08T02:02:27.875Z,37.63
2023-07-08T02:03:27.856Z,37.62
2023-07-08T02:04:27.872Z,37.58
2023-07-08T02:05:27.932Z,37.61
2023-07-08T02:06:27.891Z,37.57
2023-07-08T02:07:27.878Z,37.62
2023-07-08T02:08:27.894Z,37.65
2023-07-08T02:09:27.925Z,37.61
2023-07-08T02:10:27.930Z,37.65
2023-07-08T02:11:27.935Z,37.65
2023-07-08T02:12:27.929Z,37.59
2023-07-08T02:13:28.035Z,37.62
2023-07-08T02:14:28.093Z,37.63
2023-07-08T02:15:27.962Z,37.62
2023-07-08T02:16:28.070Z,37.60
2023-07-08T02:17:27.959Z,37.58
2023-07-08T02:18:27.981Z,37.62
2023-07-08T02:19:28.045Z,37.63
2023-07-08T02:20:27.986Z,37.61
2023-07-08T02:21:28.063Z,37.56
2023-07-08T02:22:28.005Z,37.62
2023-07-08T02:23:28.012Z,37.62
2023-07-08T02:24:28.014Z,37.59
2023-07-08T02:25:28.011Z,37.57
2023-07-08T02:26:28.033Z,37.63
2023-07-08T02:27:28.044Z,37.59
2023-07-08T02:28:28.054Z,37.63
2023-07-08T02:29:28.099Z,37.61
2023-07-08T02:30:28.113Z,37.59
2023-07-08T02:31:28.183Z,37.62
2023-07-08T02:32:28.155Z,37.64
2023-07-08T02:33:28.140Z,37.62
2023-07-08T02:34:28.148Z,37.62
2023-07-08T02:35:28.194Z,37.59
2023-07-08T02:36:28.197Z,37.59
2023-07-08T02:37:28.201Z,37.58
2023-07-08T02:38:28.204Z,37.59
2023-07-08T02:39:28.229Z,37.58
2023-07-08T02:40:28.240Z,37.61
2023-07-08T02:41:28.222Z,37.61
2023-07-08T02:42:28.221Z,37.62
2023-07-08T02:43:28.258Z,37.60
2023-07-08T02:44:28.259Z,37.63
2023-07-08T02:45:28.319Z,37.61
2023-07-08T02:46:28.443Z,37.60
2023-07-08T02:47:28.310Z,37.63
2023-07-08T02:48:28.324Z,37.62
2023-07-08T02:49:29.100Z,37.64
2023-07-08T02:50:28.286Z,37.66
2023-07-08T02:51:28.404Z,37.62
2023-07-08T02:52:29.658Z,37.64
2023-07-08T02:53:28.384Z,37.62
2023-07-08T02:54:28.324Z,37.61
2023-07-08T02:55:28.400Z,37.65
2023-07-08T02:56:28.390Z,37.66
2023-07-08T02:57:28.426Z,37.65
2023-07-08T02:58:28.418Z,37.63
2023-07-08T02:59:28.432Z,37.64
2023-07-08T03:00:28.489Z,37.60
2023-07-08T03:01:28.551Z,37.64
2023-07-08T03:02:28.508Z,37.64
2023-07-08T03:03:28.530Z,37.63
2023-07-08T03:04:28.500Z,37.59
2023-07-08T03:05:28.486Z,37.63
2023-07-08T03:06:28.520Z,37.56
2023-07-08T03:07:28.511Z,37.62
2023-07-08T03:08:28.597Z,37.61
2023-07-08T03:09:28.596Z,37.60
2023-07-08T03:10:28.603Z,37.59
2023-07-08T03:11:28.656Z,37.59
2023-07-08T03:12:28.662Z,37.60
2023-07-08T03:13:28.694Z,37.59
2023-07-08T03:14:28.659Z,37.62
2023-07-08T03:15:28.742Z,37.63
2023-07-08T03:16:28.753Z,37.59
2023-07-08T03:17:28.777Z,37.58
2023-07-08T03:18:28.736Z,37.64
2023-07-08T03:19:28.765Z,37.58
2023-07-08T03:20:28.778Z,37.60
2023-07-08T03:21:28.816Z,37.61
2023-07-08T03:22:28.892Z,37.58
2023-07-08T03:23:28.782Z,37.59
2023-07-08T03:24:28.797Z,37.59
2023-07-08T03:25:28.817Z,37.58
2023-07-08T03:26:31.339Z,37.58
2023-07-08T03:27:28.817Z,37.59
2023-07-08T03:28:28.831Z,37.58
2023-07-08T03:29:28.842Z,37.61
2023-07-08T03:30:28.795Z,37.53
2023-07-08T03:31:28.793Z,37.60
2023-07-08T03:32:28.816Z,37.57
2023-07-08T03:33:28.802Z,37.59
2023-07-08T03:34:28.781Z,37.58
2023-07-08T03:35:28.786Z,37.62
2023-07-08T03:36:28.801Z,37.57
2023-07-08T03:37:28.723Z,37.61
2023-07-08T03:38:28.748Z,37.56
2023-07-08T03:39:28.730Z,37.54
2023-07-08T03:40:28.765Z,37.52
2023-07-08T03:41:28.757Z,37.53
2023-07-08T03:42:28.706Z,37.54
2023-07-08T03:43:28.695Z,37.53
2023-07-08T03:44:28.746Z,37.52
2023-07-08T03:45:28.733Z,37.53
2023-07-08T03:46:28.716Z,37.48
2023-07-08T03:47:28.713Z,37.49
2023-07-08T03:48:28.690Z,37.47
2023-07-08T03:49:28.667Z,37.50
2023-07-08T03:50:28.676Z,37.47
2023-07-08T03:51:28.757Z,37.44
2023-07-08T03:52:28.676Z,37.47
2023-07-08T03:53:28.699Z,37.48
2023-07-08T03:54:28.654Z,37.42
2023-07-08T03:55:28.647Z,37.41
2023-07-08T03:56:28.676Z,37.41
2023-07-08T03:57:28.613Z,37.39
2023-07-08T03:58:28.632Z,37.33
2023-07-08T03:59:28.641Z,37.38
2023-07-08T04:00:28.643Z,37.33
2023-07-08T04:01:28.691Z,37.30
2023-07-08T04:02:28.660Z,37.28
2023-07-08T04:03:28.750Z,37.20
2023-07-08T04:04:28.602Z,37.21
2023-07-08T04:05:28.593Z,37.14
2023-07-08T04:06:28.583Z,37.10
2023-07-08T04:07:28.628Z,37.13
2023-07-08T04:08:28.557Z,37.07
2023-07-08T04:09:28.542Z,37.03
2023-07-08T04:10:28.558Z,36.98
2023-07-08T04:11:28.555Z,36.92
2023-07-08T04:12:28.579Z,36.90
2023-07-08T04:13:28.563Z,36.84
2023-07-08T04:14:28.529Z,36.87
2023-07-08T04:15:28.506Z,36.78
2023-07-08T04:16:28.589Z,36.73
2023-07-08T04:17:28.501Z,36.54
2023-07-08T04:18:28.520Z,36.20
2023-07-08T04:19:28.650Z,35.51
2023-07-08T04:20:28.488Z,34.78
2023-07-08T04:21:28.521Z,34.27
2023-07-08T04:22:28.455Z,33.95
2023-07-08T04:23:28.452Z,33.56
2023-07-08T04:24:28.434Z,33.10
2023-07-08T04:25:29.499Z,32.88
2023-07-08T04:26:28.464Z,32.48
2023-07-08T04:27:28.464Z,32.02
2023-07-08T04:28:28.435Z,31.67
2023-07-08T04:29:28.426Z,31.29
2023-07-08T04:30:28.437Z,31.03
2023-07-08T04:31:28.507Z,30.78
2023-07-08T04:32:28.391Z,30.52
2023-07-08T04:33:28.380Z,30.30
2023-07-08T04:34:28.468Z,30.11
2023-07-08T04:35:28.367Z,29.96
2023-07-08T04:36:28.382Z,29.80
2023-07-08T04:37:28.413Z,30.06
2023-07-08T04:38:28.333Z,29.82
2023-07-08T04:39:28.441Z,29.52
2023-07-08T04:40:28.394Z,29.36
2023-07-08T04:41:28.328Z,29.09
2023-07-08T04:42:28.364Z,29.01
2023-07-08T04:43:28.350Z,28.82
2023-07-08T04:44:28.336Z,28.68
2023-07-08T04:45:28.333Z,28.53
2023-07-08T04:46:28.409Z,28.44
2023-07-08T04:47:28.388Z,28.38
2023-07-08T04:48:28.284Z,28.50
2023-07-08T04:49:28.300Z,28.65
2023-07-08T04:50:28.312Z,28.68
2023-07-08T04:51:28.267Z,28.63
2023-07-08T04:52:28.330Z,28.60
2023-07-08T04:53:28.357Z,28.45
2023-07-08T04:54:28.407Z,28.47
2023-07-08T04:55:28.393Z,28.86
2023-07-08T04:56:28.386Z,29.19
2023-07-08T04:57:28.354Z,29.48
2023-07-08T04:58:28.363Z,29.86
2023-07-08T04:59:28.374Z,30.29
2023-07-08T05:00:28.388Z,30.86
2023-07-08T05:01:28.476Z,31.28
2023-07-08T05:02:28.520Z,31.24
2023-07-08T05:03:28.511Z,30.64
2023-07-08T05:04:28.429Z,30.08
2023-07-08T05:05:28.478Z,29.69
2023-07-08T05:06:28.471Z,29.50
2023-07-08T05:07:28.491Z,29.26
2023-07-08T05:08:28.522Z,29.12
2023-07-08T05:09:28.514Z,29.11
2023-07-08T05:10:28.521Z,29.12
2023-07-08T05:11:28.531Z,29.11
2023-07-08T05:12:28.587Z,29.05
2023-07-08T05:13:28.702Z,28.96
2023-07-08T05:14:28.738Z,29.02
2023-07-08T05:15:28.707Z,29.30
2023-07-08T05:16:28.863Z,29.54
2023-07-08T05:17:28.775Z,29.80
2023-07-08T05:18:28.727Z,29.60
2023-07-08T05:19:28.780Z,29.45
2023-07-08T05:20:28.747Z,29.25
2023-07-08T05:21:28.802Z,28.91
2023-07-08T05:22:28.901Z,28.84
2023-07-08T05:23:28.906Z,28.77
2023-07-08T05:24:29.009Z,29.01
2023-07-08T05:25:29.034Z,29.47
2023-07-08T05:26:29.030Z,30.15
2023-07-08T05:27:29.045Z,30.70
2023-07-08T05:28:29.038Z,31.18
2023-07-08T05:29:29.118Z,31.59
2023-07-08T05:30:29.104Z,31.85
2023-07-08T05:31:42.191Z,32.15
2023-07-08T05:32:30.185Z,32.29
2023-07-08T05:33:29.071Z,31.70
2023-07-08T05:34:29.131Z,31.67
2023-07-08T05:35:29.080Z,32.09
2023-07-08T05:36:29.059Z,32.41
2023-07-08T05:37:29.065Z,31.97
2023-07-08T05:38:29.116Z,31.17
2023-07-08T05:39:29.060Z,30.95
2023-07-08T05:40:29.100Z,31.04
2023-07-08T05:41:29.028Z,31.44
2023-07-08T05:42:28.994Z,31.77
2023-07-08T05:43:29.031Z,31.65
2023-07-08T05:44:29.010Z,31.98
2023-07-08T05:45:28.976Z,32.15
2023-07-08T05:46:29.062Z,31.55
2023-07-08T05:47:29.018Z,31.58
2023-07-08T05:48:28.971Z,31.76
2023-07-08T05:49:28.979Z,31.54
2023-07-08T05:50:28.952Z,30.98
2023-07-08T05:51:28.969Z,30.61
2023-07-08T05:52:28.930Z,30.07
2023-07-08T05:53:28.972Z,29.71
2023-07-08T05:54:28.952Z,29.42
2023-07-08T05:55:28.981Z,29.39
2023-07-08T05:56:28.953Z,29.66
2023-07-08T05:57:29.050Z,30.12
2023-07-08T05:58:29.105Z,30.46
2023-07-08T05:59:29.139Z,30.70
2023-07-08T06:00:38.442Z,30.78
2023-07-08T06:01:30.111Z,30.79
2023-07-08T06:02:29.094Z,30.93
2023-07-08T06:03:29.111Z,31.00
2023-07-08T06:04:29.041Z,31.07
2023-07-08T06:05:29.092Z,30.64
2023-07-08T06:06:29.092Z,30.42
2023-07-08T06:07:29.042Z,30.64
2023-07-08T06:08:29.037Z,30.93
2023-07-08T06:09:29.083Z,31.28
2023-07-08T06:10:29.022Z,31.55
2023-07-08T06:11:29.961Z,31.87
2023-07-08T06:12:29.043Z,32.08
2023-07-08T06:13:29.070Z,32.06
2023-07-08T06:14:29.048Z,31.89
2023-07-08T06:15:29.710Z,31.75
2023-07-08T06:16:40.142Z,31.57
2023-07-08T06:17:30.126Z,31.43
2023-07-08T06:18:29.004Z,31.06
2023-07-08T06:19:29.696Z,30.70
2023-07-08T06:20:28.991Z,30.33
2023-07-08T06:21:29.006Z,30.13
2023-07-08T06:22:46.479Z,29.98
2023-07-08T06:23:29.944Z,29.79
2023-07-08T06:24:28.920Z,29.74
2023-07-08T06:25:28.929Z,29.82
2023-07-08T06:26:28.931Z,29.92
2023-07-08T06:27:28.905Z,30.07
2023-07-08T06:28:28.967Z,30.29
2023-07-08T06:29:28.870Z,30.50
2023-07-08T06:30:28.926Z,30.70
2023-07-08T06:31:28.944Z,30.97
2023-07-08T06:32:28.901Z,31.12
2023-07-08T06:33:28.886Z,31.29
2023-07-08T06:34:28.885Z,31.43
2023-07-08T06:35:28.892Z,31.50
2023-07-08T06:36:28.850Z,31.61
2023-07-08T06:37:28.917Z,31.68
2023-07-08T06:38:29.009Z,31.76
2023-07-08T06:39:29.022Z,31.88
2023-07-08T06:40:29.052Z,31.96
2023-07-08T06:41:29.133Z,31.99
2023-07-08T06:42:29.173Z,32.02
2023-07-08T06:43:29.255Z,32.00
2023-07-08T06:44:29.359Z,32.04
2023-07-08T06:45:29.374Z,32.04
2023-07-08T06:46:29.462Z,32.02
2023-07-08T06:47:29.463Z,32.04
2023-07-08T06:48:29.549Z,31.99
2023-07-08T06:49:29.601Z,31.98
2023-07-08T06:50:29.604Z,32.01
2023-07-08T06:51:29.677Z,32.03
2023-07-08T06:52:29.724Z,31.98
2023-07-08T06:53:29.780Z,31.97
2023-07-08T06:54:29.836Z,31.95
2023-07-08T06:55:29.837Z,31.99
2023-07-08T06:56:29.953Z,32.03
2023-07-08T06:57:29.987Z,32.01
2023-07-08T06:58:30.025Z,32.03
2023-07-08T06:59:30.089Z,32.03
2023-07-08T07:00:30.127Z,32.04
2023-07-08T07:01:30.199Z,32.03
2023-07-08T07:02:30.251Z,32.08
2023-07-08T07:03:30.341Z,32.10
2023-07-08T07:04:30.318Z,32.12
2023-07-08T07:05:30.317Z,32.14
2023-07-08T07:06:30.331Z,32.14
2023-07-08T07:07:30.343Z,32.15
2023-07-08T07:08:30.339Z,32.12
2023-07-08T07:09:30.417Z,32.12
2023-07-08T07:10:30.461Z,32.11
2023-07-08T07:11:30.520Z,32.11
2023-07-08T07:12:30.580Z,32.27
2023-07-08T07:13:30.666Z,32.34
2023-07-08T07:15:30.717Z,32.27
2023-07-08T07:16:30.674Z,32.27
2023-07-08T07:17:30.748Z,32.33
2023-07-08T07:18:30.688Z,32.40
2023-07-08T07:19:30.621Z,32.43
2023-07-08T07:20:30.593Z,32.41
2023-07-08T07:21:30.639Z,32.44
2023-07-08T07:22:30.626Z,32.48
2023-07-08T07:23:30.597Z,32.47
2023-07-08T07:24:30.630Z,32.54
2023-07-08T07:25:30.600Z,32.59
2023-07-08T07:26:30.568Z,32.73
2023-07-08T07:27:30.580Z,32.79
2023-07-08T07:28:30.709Z,32.81
2023-07-08T07:29:30.556Z,32.86
2023-07-08T07:30:30.546Z,32.76
2023-07-08T07:31:30.586Z,32.76
2023-07-08T07:32:30.602Z,32.80
2023-07-08T07:33:30.575Z,32.87
2023-07-08T07:34:30.589Z,32.91
2023-07-08T07:35:30.528Z,32.92
2023-07-08T07:36:30.532Z,32.96
2023-07-08T07:37:30.540Z,33.11
2023-07-08T07:38:30.501Z,33.07
2023-07-08T07:39:30.506Z,33.05
2023-07-08T07:40:30.495Z,33.00
2023-07-08T07:41:30.468Z,33.01
2023-07-08T07:42:30.493Z,33.02
2023-07-08T07:43:30.478Z,33.06
2023-07-08T07:44:30.479Z,33.09
2023-07-08T07:45:30.468Z,33.12
2023-07-08T07:46:31.284Z,33.18
2023-07-08T07:47:31.531Z,33.18
2023-07-08T07:48:30.449Z,33.22
2023-07-08T07:49:30.421Z,33.29
2023-07-08T07:50:30.408Z,33.27
2023-07-08T07:51:30.438Z,33.19
2023-07-08T07:52:30.402Z,33.22
2023-07-08T07:53:30.403Z,33.18
2023-07-08T07:54:30.385Z,33.27
2023-07-08T07:55:30.363Z,33.30
2023-07-08T07:56:30.367Z,33.30
2023-07-08T07:57:30.332Z,33.45
2023-07-08T07:58:30.441Z,33.43
2023-07-08T07:59:30.511Z,33.40
2023-07-08T08:00:30.558Z,33.34
2023-07-08T08:01:30.649Z,33.31
2023-07-08T08:02:30.683Z,33.32
2023-07-08T08:03:30.772Z,33.22
2023-07-08T08:04:30.799Z,33.37
2023-07-08T08:05:30.857Z,33.43
2023-07-08T08:06:30.950Z,33.44
2023-07-08T08:07:30.956Z,33.43
2023-07-08T08:08:31.030Z,33.44
2023-07-08T08:09:31.079Z,33.44
2023-07-08T08:10:31.132Z,33.44
2023-07-08T08:11:31.246Z,33.50
2023-07-08T08:12:40.830Z,33.51
2023-07-08T08:13:32.325Z,33.55
2023-07-08T08:14:31.349Z,33.55
2023-07-08T08:15:31.278Z,33.55
2023-07-08T08:16:31.292Z,33.59
2023-07-08T08:17:31.374Z,33.56
2023-07-08T08:18:31.348Z,33.60
2023-07-08T08:19:31.249Z,33.61
2023-07-08T08:20:31.256Z,33.65
2023-07-08T08:21:31.249Z,33.72
2023-07-08T08:22:31.269Z,33.69
2023-07-08T08:23:31.376Z,33.70
2023-07-08T08:24:31.477Z,33.65
2023-07-08T08:25:31.421Z,33.64
2023-07-08T08:26:31.419Z,33.62
2023-07-08T08:27:31.408Z,33.65
2023-07-08T08:28:31.465Z,33.68
2023-07-08T08:29:31.510Z,33.70
2023-07-08T08:30:31.605Z,33.67
2023-07-08T08:31:31.665Z,33.76
2023-07-08T08:32:31.740Z,33.68
2023-07-08T08:33:31.784Z,33.75
2023-07-08T08:34:31.801Z,33.82
2023-07-08T08:35:31.951Z,33.84
2023-07-08T08:36:31.878Z,33.81
2023-07-08T08:37:31.848Z,33.78
2023-07-08T08:38:31.871Z,33.80
2023-07-08T08:39:31.835Z,33.78
2023-07-08T08:40:31.825Z,33.73
2023-07-08T08:41:31.907Z,33.69
2023-07-08T08:42:31.909Z,33.65
2023-07-08T08:43:31.930Z,33.61
2023-07-08T08:44:32.011Z,33.62
2023-07-08T08:45:32.049Z,33.63
2023-07-08T08:46:32.129Z,33.68
2023-07-08T08:47:32.121Z,33.65
2023-07-08T08:48:32.170Z,33.69
2023-07-08T08:49:32.222Z,33.77
2023-07-08T08:50:32.279Z,33.71
2023-07-08T08:51:32.337Z,33.77
2023-07-08T08:52:32.401Z,33.76
2023-07-08T08:53:32.504Z,33.80
2023-07-08T08:54:32.510Z,33.78
2023-07-08T08:55:32.570Z,33.75
2023-07-08T08:56:32.640Z,33.73
2023-07-08T08:57:32.740Z,33.74
2023-07-08T08:58:32.796Z,33.69
2023-07-08T08:59:32.803Z,33.66
2023-07-08T09:00:32.862Z,33.58
2023-07-08T09:01:33.342Z,33.61
2023-07-08T09:02:32.988Z,33.61
2023-07-08T09:03:33.020Z,33.58
2023-07-08T09:04:32.994Z,33.57
2023-07-08T09:05:33.053Z,33.56
2023-07-08T09:06:33.133Z,33.57
2023-07-08T09:07:33.197Z,33.54
2023-07-08T09:08:33.282Z,33.57
2023-07-08T09:09:33.352Z,33.58
2023-07-08T09:10:33.238Z,33.63
2023-07-08T09:11:33.224Z,33.63
2023-07-08T09:12:33.235Z,33.71
2023-07-08T09:13:33.291Z,33.71
2023-07-08T09:14:33.246Z,33.69
2023-07-08T09:15:33.293Z,33.75
2023-07-08T09:16:33.262Z,33.76
2023-07-08T09:17:36.278Z,33.73
2023-07-08T09:18:33.306Z,33.75
2023-07-08T09:19:33.259Z,33.72
2023-07-08T09:20:33.280Z,33.74
2023-07-08T09:21:33.257Z,33.71
2023-07-08T09:22:33.264Z,33.75
2023-07-08T09:23:33.240Z,33.76
2023-07-08T09:24:33.232Z,33.75
2023-07-08T09:25:33.220Z,33.79
2023-07-08T09:26:33.224Z,33.74
2023-07-08T09:27:33.236Z,33.74
2023-07-08T09:28:33.195Z,33.70
2023-07-08T09:29:33.209Z,33.78
2023-07-08T09:30:33.186Z,33.78
2023-07-08T09:31:33.254Z,33.77
2023-07-08T09:32:33.372Z,33.76
2023-07-08T09:33:34.413Z,33.78
2023-07-08T09:34:33.173Z,33.82
2023-07-08T09:35:33.166Z,33.82
2023-07-08T09:36:33.148Z,33.83
2023-07-08T09:37:33.223Z,33.80
2023-07-08T09:38:33.164Z,33.87
2023-07-08T09:39:33.142Z,33.79
2023-07-08T09:40:33.106Z,33.85
2023-07-08T09:41:33.122Z,33.85
2023-07-08T09:42:33.129Z,33.81
2023-07-08T09:43:33.098Z,33.82
2023-07-08T09:44:33.108Z,33.81
2023-07-08T09:45:33.084Z,33.82
2023-07-08T09:46:33.183Z,33.81
2023-07-08T09:47:33.179Z,33.81
2023-07-08T09:48:33.085Z,33.84
2023-07-08T09:49:33.040Z,33.85
2023-07-08T09:50:33.057Z,33.82
2023-07-08T09:51:33.046Z,33.81
2023-07-08T09:52:33.026Z,33.85
2023-07-08T09:53:33.030Z,33.85
2023-07-08T09:54:33.012Z,33.84
2023-07-08T09:55:33.141Z,33.79
2023-07-08T09:56:32.977Z,33.84
2023-07-08T09:57:33.022Z,33.85
2023-07-08T09:58:33.065Z,33.85
2023-07-08T09:59:33.146Z,33.87
2023-07-08T10:00:33.079Z,33.82
2023-07-08T10:01:33.081Z,33.88
2023-07-08T10:02:33.225Z,33.84
2023-07-08T10:03:33.228Z,33.79
2023-07-08T10:04:33.224Z,33.82
2023-07-08T10:05:33.084Z,33.82
2023-07-08T10:06:33.121Z,33.81
2023-07-08T10:07:33.160Z,33.79
2023-07-08T10:08:33.192Z,33.77
2023-07-08T10:09:33.231Z,33.74
2023-07-08T10:10:33.250Z,33.73
2023-07-08T10:11:33.330Z,33.76
2023-07-08T10:12:33.483Z,33.73
2023-07-08T10:13:33.508Z,33.70
2023-07-08T10:14:33.459Z,33.69
2023-07-08T10:15:33.483Z,33.71
2023-07-08T10:16:33.508Z,33.74
2023-07-08T10:17:33.688Z,33.70
2023-07-08T10:18:33.571Z,33.70
2023-07-08T10:19:34.395Z,33.78
2023-07-08T10:20:33.557Z,33.74
2023-07-08T10:21:33.529Z,33.81
2023-07-08T10:22:33.566Z,33.77
2023-07-08T10:23:33.584Z,33.74
2023-07-08T10:24:33.561Z,33.75
2023-07-08T10:25:33.562Z,33.72
2023-07-08T10:26:33.583Z,33.74
2023-07-08T10:27:33.684Z,33.75
2023-07-08T10:28:33.584Z,33.71
2023-07-08T10:29:33.669Z,33.70
2023-07-08T10:30:33.808Z,33.70
2023-07-08T10:31:33.891Z,33.71
2023-07-08T10:32:33.870Z,33.68
2023-07-08T10:33:33.841Z,33.73
2023-07-08T10:34:33.918Z,33.70
2023-07-08T10:35:34.506Z,33.71
2023-07-08T10:36:34.036Z,33.68
2023-07-08T10:37:34.077Z,33.71
2023-07-08T10:38:34.266Z,33.75
2023-07-08T10:39:34.295Z,33.77
2023-07-08T10:40:34.306Z,33.79
2023-07-08T10:41:34.304Z,33.81
2023-07-08T10:42:34.326Z,33.78
2023-07-08T10:43:34.414Z,33.87
2023-07-08T10:44:34.403Z,33.82
2023-07-08T10:45:34.490Z,33.85
2023-07-08T10:46:34.481Z,33.89
2023-07-08T10:47:34.544Z,33.86
2023-07-08T10:48:34.475Z,33.93
2023-07-08T10:49:34.493Z,33.93
2023-07-08T10:50:34.454Z,33.90
2023-07-08T10:51:34.523Z,33.89
2023-07-08T10:52:34.482Z,33.94
2023-07-08T10:53:34.510Z,33.97
2023-07-08T10:54:34.527Z,33.98
2023-07-08T10:55:34.552Z,34.01
2023-07-08T10:56:34.530Z,33.98
2023-07-08T10:57:34.525Z,34.00
2023-07-08T10:58:34.541Z,33.97
2023-07-08T10:59:34.653Z,33.97
2023-07-08T11:00:34.518Z,33.98
2023-07-08T11:01:34.573Z,33.97
2023-07-08T11:02:34.630Z,33.98
2023-07-08T11:03:34.630Z,34.01
2023-07-08T11:04:34.576Z,34.04
2023-07-08T11:05:34.644Z,34.01
2023-07-08T11:06:34.658Z,34.01
2023-07-08T11:07:34.658Z,34.05
2023-07-08T11:08:34.637Z,34.03
2023-07-08T11:09:34.701Z,34.06
2023-07-08T11:10:36.705Z,34.05
2023-07-08T11:11:34.709Z,33.99
2023-07-08T11:12:34.691Z,34.05
2023-07-08T11:13:34.720Z,34.05
2023-07-08T11:14:34.722Z,34.02
2023-07-08T11:15:34.755Z,34.02
2023-07-08T11:16:36.872Z,34.06
2023-07-08T11:17:34.871Z,34.12
2023-07-08T11:18:34.919Z,34.15
2023-07-08T11:19:34.854Z,34.19
2023-07-08T11:20:34.885Z,34.15
2023-07-08T11:21:34.831Z,34.19
2023-07-08T11:22:34.845Z,34.20
2023-07-08T11:23:34.868Z,34.19
2023-07-08T11:24:34.821Z,34.19
2023-07-08T11:25:34.889Z,34.18
2023-07-08T11:26:34.900Z,34.15
2023-07-08T11:27:34.903Z,34.16
2023-07-08T11:28:34.940Z,34.19
2023-07-08T11:29:34.915Z,34.15
2023-07-08T11:30:34.956Z,34.19
2023-07-08T11:31:35.165Z,34.22
2023-07-08T11:32:35.087Z,34.27
2023-07-08T11:33:36.216Z,34.28
2023-07-08T11:34:34.983Z,34.28
2023-07-08T11:35:34.995Z,34.31
2023-07-08T11:36:34.996Z,34.31
2023-07-08T11:37:34.998Z,34.30
2023-07-08T11:38:34.987Z,34.30
2023-07-08T11:39:34.968Z,34.30
2023-07-08T11:40:34.995Z,34.30
2023-07-08T11:41:34.979Z,34.34
2023-07-08T11:42:35.008Z,34.38
2023-07-08T11:43:35.012Z,34.42
2023-07-08T11:44:37.133Z,34.36
2023-07-08T11:45:35.018Z,34.38
2023-07-08T11:46:35.031Z,34.39
2023-07-08T11:47:35.135Z,34.45
2023-07-08T11:48:35.090Z,34.42
2023-07-08T11:49:35.064Z,34.42
2023-07-08T11:50:34.968Z,34.43
2023-07-08T11:51:34.934Z,34.45
2023-07-08T11:52:34.986Z,34.43
2023-07-08T11:53:35.066Z,34.44
2023-07-08T11:54:34.940Z,34.47
2023-07-08T11:55:34.931Z,34.46
2023-07-08T11:56:34.921Z,34.45
2023-07-08T11:57:34.946Z,34.43
2023-07-08T11:58:34.951Z,34.46
2023-07-08T11:59:34.898Z,34.45
2023-07-08T12:00:34.930Z,34.46
2023-07-08T12:01:34.924Z,34.45
2023-07-08T12:02:34.959Z,34.50
2023-07-08T12:03:34.920Z,34.50
2023-07-08T12:04:34.886Z,34.47
2023-07-08T12:05:34.857Z,34.46
2023-07-08T12:06:34.874Z,34.42
2023-07-08T12:07:35.003Z,34.45
2023-07-08T12:08:34.840Z,34.49
2023-07-08T12:09:34.864Z,34.48
2023-07-08T12:10:34.855Z,34.51
2023-07-08T12:11:34.841Z,34.53
2023-07-08T12:12:34.848Z,34.50
2023-07-08T12:13:34.862Z,34.53
2023-07-08T12:14:34.857Z,34.54
2023-07-08T12:15:34.794Z,34.52
2023-07-08T12:16:34.852Z,34.54
2023-07-08T12:17:34.817Z,34.55
2023-07-08T12:18:34.826Z,34.58
2023-07-08T12:19:35.979Z,34.54
2023-07-08T12:20:34.799Z,34.57
2023-07-08T12:21:34.795Z,34.55
2023-07-08T12:22:34.781Z,34.59
2023-07-08T12:23:34.728Z,34.59
2023-07-08T12:24:34.766Z,34.58
2023-07-08T12:25:34.772Z,34.54
2023-07-08T12:26:34.729Z,34.54
2023-07-08T12:27:34.732Z,34.59
2023-07-08T12:28:34.827Z,34.53
2023-07-08T12:29:34.750Z,34.57
2023-07-08T12:30:34.737Z,34.56
2023-07-08T12:31:34.888Z,34.54
2023-07-08T12:32:34.706Z,34.58
2023-07-08T12:33:34.701Z,34.61
2023-07-08T12:34:34.711Z,34.59
2023-07-08T12:35:34.684Z,34.56
2023-07-08T12:36:34.673Z,34.53
2023-07-08T12:37:34.697Z,34.57
2023-07-08T12:38:34.684Z,34.60
2023-07-08T12:39:34.677Z,34.62
2023-07-08T12:40:34.666Z,34.62
2023-07-08T12:41:34.746Z,34.60
2023-07-08T12:42:34.656Z,34.59
2023-07-08T12:43:34.616Z,34.63
2023-07-08T12:44:34.618Z,34.63
2023-07-08T12:45:34.599Z,34.59
2023-07-08T12:46:34.647Z,34.67
2023-07-08T12:47:34.895Z,34.63
2023-07-08T12:48:34.635Z,34.60
2023-07-08T12:49:34.617Z,34.65
2023-07-08T12:50:34.580Z,34.65
2023-07-08T12:51:34.593Z,34.61
2023-07-08T12:52:34.689Z,34.67
2023-07-08T12:53:34.659Z,34.68